createdAt,value
2023-02-24T00:02:05.492Z,29.67
2023-02-24T00:04:36.227Z,27.05
2023-02-24T00:07:03.136Z,26.77
2023-02-24T00:09:31.328Z,25.92
2023-02-24T00:12:02.687Z,24.27
2023-02-24T00:14:32.253Z,24.85
2023-02-24T00:16:59.304Z,26.85
2023-02-24T00:19:29.072Z,23.00
2023-02-24T00:21:55.852Z,26.10
2023-02-24T00:24:23.522Z,26.45
2023-02-24T00:26:55.794Z,23.65
2023-02-24T00:29:26.788Z,26.95
2023-02-24T00:31:59.250Z,28.00
2023-02-24T00:34:31.234Z,26.40
2023-02-24T00:36:58.607Z,28.50
2023-02-24T00:39:33.439Z,21.90
2023-02-24T00:42:05.124Z,20.95
2023-02-24T00:44:45.082Z,22.50
2023-02-24T00:47:13.350Z,23.58
2023-02-24T00:49:43.416Z,22.77
2023-02-24T00:52:20.552Z,22.73
2023-02-24T00:54:49.235Z,22.30
2023-02-24T00:57:21.235Z,26.27
2023-02-24T00:59:48.178Z,25.58
2023-02-24T01:02:15.907Z,22.38
2023-02-24T01:04:44.296Z,18.70
2023-02-24T01:07:12.913Z,20.63
2023-02-24T01:09:41.662Z,26.45
2023-02-24T01:12:22.385Z,21.60
2023-02-24T01:14:52.586Z,20.67
2023-02-24T01:17:21.026Z,23.60
2023-02-24T01:19:49.694Z,23.77
2023-02-24T01:22:20.420Z,24.42
2023-02-24T01:24:48.553Z,23.38
2023-02-24T01:27:19.373Z,22.65
2023-02-24T01:29:47.474Z,24.02
2023-02-24T01:32:17.650Z,22.05
2023-02-24T01:34:45.026Z,22.33
2023-02-24T01:37:16.253Z,22.38
2023-02-24T01:39:44.773Z,22.33
2023-02-24T01:42:16.582Z,21.48
2023-02-24T01:44:47.967Z,20.65
2023-02-24T01:47:20.927Z,22.70
2023-02-24T01:49:52.132Z,21.92
2023-02-24T01:52:34.419Z,20.08
2023-02-24T01:55:07.405Z,19.25
2023-02-24T01:57:38.583Z,31.60
2023-02-24T02:00:19.671Z,24.80
2023-02-24T02:02:50.680Z,18.92
2023-02-24T02:05:18.451Z,21.95
2023-02-24T02:07:45.774Z,24.80
2023-02-24T02:10:13.668Z,25.08
2023-02-24T02:12:44.328Z,29.67
2023-02-24T02:15:15.290Z,27.45
2023-02-24T02:18:07.635Z,27.40
2023-02-24T02:20:55.864Z,26.05
2023-02-24T02:24:04.952Z,22.33
2023-02-24T02:26:53.883Z,24.77
2023-02-24T02:29:51.037Z,24.23
2023-02-24T02:32:31.460Z,23.50
2023-02-24T02:35:19.182Z,22.63
2023-02-24T02:38:00.102Z,19.90
2023-02-24T02:40:38.072Z,22.50
2023-02-24T02:43:19.429Z,23.05
2023-02-24T02:45:51.994Z,23.52
2023-02-24T02:48:27.313Z,24.23
2023-02-24T02:51:04.144Z,22.40
2023-02-24T02:53:39.071Z,22.73
2023-02-24T02:56:37.321Z,23.58
2023-02-24T02:59:06.476Z,26.30
2023-02-24T03:01:37.472Z,23.20
2023-02-24T03:04:09.437Z,26.08
2023-02-24T03:06:48.064Z,24.00
2023-02-24T03:09:24.500Z,24.67
2023-02-24T03:11:59.370Z,24.02
2023-02-24T03:14:33.185Z,21.92
2023-02-24T03:17:04.430Z,23.23
2023-02-24T03:19:37.724Z,22.05
2023-02-24T03:22:13.794Z,24.92
2023-02-24T03:24:42.330Z,32.00
2023-02-24T03:27:13.600Z,22.65
2023-02-24T03:29:50.318Z,21.10
2023-02-24T03:32:27.111Z,20.83
2023-02-24T03:35:04.230Z,21.15
2023-02-24T03:37:33.490Z,22.90
2023-02-24T03:40:11.324Z,25.65
2023-02-24T03:42:42.029Z,17.15
2023-02-24T03:45:09.366Z,22.33
2023-02-24T03:47:36.785Z,19.95
2023-02-24T03:50:13.033Z,19.15
2023-02-24T03:53:04.248Z,23.02
2023-02-24T03:56:15.824Z,22.65
2023-02-24T03:59:12.908Z,22.35
2023-02-24T04:01:55.645Z,22.42
2023-02-24T04:04:33.426Z,24.15
2023-02-24T04:07:19.196Z,23.40
2023-02-24T04:10:15.158Z,24.70
2023-02-24T04:13:02.034Z,27.17
2023-02-24T04:15:37.571Z,25.35
2023-02-24T04:18:13.235Z,24.70
2023-02-24T04:20:41.173Z,22.98
2023-02-24T04:23:13.501Z,24.80
2023-02-24T04:25:43.940Z,19.60
2023-02-24T04:28:12.077Z,23.90
2023-02-24T04:30:43.024Z,22.50
2023-02-24T04:33:10.209Z,24.55
2023-02-24T04:35:37.810Z,23.92
2023-02-24T04:38:05.316Z,23.85
2023-02-24T04:40:32.131Z,25.48
2023-02-24T04:42:58.941Z,24.23
2023-02-24T04:45:28.342Z,24.35
2023-02-24T04:48:03.756Z,26.35
2023-02-24T04:50:36.302Z,27.13
2023-02-24T04:53:07.168Z,26.60
2023-02-24T04:55:39.988Z,25.40
2023-02-24T04:58:11.982Z,26.77
2023-02-24T05:00:41.529Z,21.85
2023-02-24T05:03:11.293Z,25.35
2023-02-24T05:05:38.256Z,24.08
2023-02-24T05:08:07.780Z,21.08
2023-02-24T05:10:45.787Z,25.83
2023-02-24T05:13:26.595Z,26.15
2023-02-24T05:15:56.037Z,24.95
2023-02-24T05:18:23.984Z,22.75
2023-02-24T05:21:15.368Z,36.95
2023-02-24T05:23:44.765Z,43.03
2023-02-24T05:26:16.272Z,46.28
2023-02-24T05:28:44.592Z,46.45
2023-02-24T05:31:17.387Z,43.10
2023-02-24T05:33:46.656Z,42.40
2023-02-24T05:36:17.176Z,45.33
2023-02-24T05:38:45.572Z,40.83
2023-02-24T05:41:17.772Z,37.40
2023-02-24T05:43:52.689Z,44.55
2023-02-24T05:46:29.558Z,39.65
2023-02-24T05:48:57.780Z,35.15
2023-02-24T05:51:25.753Z,33.05
2023-02-24T05:53:56.400Z,33.13
2023-02-24T05:56:23.563Z,34.50
2023-02-24T05:59:01.749Z,35.80
2023-02-24T06:01:34.689Z,32.38
2023-02-24T06:04:06.784Z,33.92
2023-02-24T06:06:38.889Z,30.15
2023-02-24T06:09:12.560Z,36.85
2023-02-24T06:11:45.138Z,31.63
2023-02-24T06:14:12.881Z,32.63
2023-02-24T06:16:41.500Z,35.10
2023-02-24T06:19:09.905Z,31.83
2023-02-24T06:21:41.112Z,28.45
2023-02-24T06:24:15.440Z,33.35
2023-02-24T06:26:45.858Z,32.97
2023-02-24T06:29:14.851Z,33.42
2023-02-24T06:31:42.968Z,31.52
2023-02-24T06:34:18.301Z,31.08
2023-02-24T06:36:46.869Z,32.65
2023-02-24T06:39:14.567Z,40.15
2023-02-24T06:41:42.575Z,29.90
2023-02-24T06:44:09.561Z,34.38
2023-02-24T06:46:37.204Z,34.45
2023-02-24T06:49:04.425Z,34.05
2023-02-24T06:51:31.884Z,36.25
2023-02-24T06:53:59.457Z,32.15
2023-02-24T06:56:27.609Z,37.33
2023-02-24T06:58:55.887Z,37.47
2023-02-24T07:01:28.745Z,32.30
2023-02-24T07:04:17.586Z,35.30
2023-02-24T07:06:52.224Z,39.92
2023-02-24T07:09:21.767Z,38.47
2023-02-24T07:11:52.037Z,38.08
2023-02-24T07:14:21.164Z,34.67
2023-02-24T07:16:53.957Z,36.50
2023-02-24T07:19:23.875Z,40.67
2023-02-24T07:21:52.548Z,42.63
2023-02-24T07:24:25.126Z,31.80
2023-02-24T07:26:57.124Z,39.65
2023-02-24T07:29:25.798Z,34.00
2023-02-24T07:31:56.538Z,37.25
2023-02-24T07:34:25.241Z,36.35
2023-02-24T07:36:52.984Z,38.35
2023-02-24T07:39:22.998Z,43.10
2023-02-24T07:41:51.814Z,36.35
2023-02-24T07:44:20.456Z,41.45
2023-02-24T07:46:49.033Z,40.17
2023-02-24T07:49:25.881Z,40.10
2023-02-24T07:51:55.217Z,37.20
2023-02-24T07:54:23.338Z,36.88
2023-02-24T07:56:56.711Z,38.63
2023-02-24T07:59:26.437Z,38.85
2023-02-24T08:01:55.962Z,37.17
2023-02-24T08:04:28.647Z,35.78
2023-02-24T08:06:58.883Z,43.33
2023-02-24T08:09:45.885Z,37.38
2023-02-24T08:12:21.173Z,36.33
2023-02-24T08:14:51.260Z,37.13
2023-02-24T08:17:23.613Z,34.17
2023-02-24T08:20:15.548Z,38.00
2023-02-24T08:22:46.543Z,34.58
2023-02-24T08:25:19.011Z,36.95
2023-02-24T08:28:06.704Z,35.83
2023-02-24T08:30:39.684Z,41.83
2023-02-24T08:33:09.305Z,36.80
2023-02-24T08:35:44.317Z,35.13
2023-02-24T08:38:14.930Z,36.42
2023-02-24T08:40:51.703Z,34.78
2023-02-24T08:43:33.023Z,34.20
2023-02-24T08:46:18.544Z,35.45
2023-02-24T08:48:49.670Z,35.22
2023-02-24T08:51:22.685Z,36.85
2023-02-24T08:53:54.926Z,32.05
2023-02-24T08:56:27.915Z,28.83
2023-02-24T08:59:05.128Z,32.58
2023-02-24T09:02:04.338Z,33.88
2023-02-24T09:04:34.251Z,27.33
2023-02-24T09:07:11.810Z,31.52
2023-02-24T09:09:42.160Z,30.05
2023-02-24T09:12:21.822Z,31.13
2023-02-24T09:15:07.446Z,28.15
2023-02-24T09:17:40.571Z,28.95
2023-02-24T09:20:25.587Z,33.33
2023-02-24T09:23:08.873Z,26.38
2023-02-24T09:25:41.604Z,27.33
2023-02-24T09:28:27.610Z,31.15
2023-02-24T09:30:58.443Z,26.23
2023-02-24T09:33:38.835Z,27.85
2023-02-24T09:36:20.248Z,26.58
2023-02-24T09:39:02.307Z,24.10
2023-02-24T09:41:32.728Z,21.58
2023-02-24T09:44:20.221Z,24.35
2023-02-24T09:47:08.719Z,26.42
2023-02-24T09:49:46.430Z,26.55
2023-02-24T09:52:16.972Z,23.52
2023-02-24T09:55:25.709Z,25.20
2023-02-24T09:58:17.871Z,22.85
2023-02-24T10:01:21.871Z,22.00
2023-02-24T10:07:10.833Z,20.75
2023-02-24T10:09:43.375Z,23.80
2023-02-24T10:12:19.023Z,22.35
2023-02-24T10:15:32.266Z,23.02
2023-02-24T10:18:27.092Z,22.90
2023-02-24T10:21:19.351Z,21.88
2023-02-24T10:24:29.264Z,22.45
2023-02-24T10:27:08.489Z,23.20
2023-02-24T10:29:47.136Z,24.80
2023-02-24T10:32:47.040Z,21.90
2023-02-24T10:35:17.196Z,22.05
2023-02-24T10:37:44.864Z,19.45
2023-02-24T10:40:17.437Z,19.73
2023-02-24T10:42:48.773Z,23.20
2023-02-24T10:45:23.796Z,20.38
2023-02-24T10:47:59.587Z,19.88
2023-02-24T10:50:55.017Z,22.70
2023-02-24T10:53:34.595Z,21.83
2023-02-24T10:56:27.007Z,19.77
2023-02-24T10:59:22.835Z,20.98
2023-02-24T11:01:59.293Z,19.42
2023-02-24T11:05:04.118Z,20.48
2023-02-24T11:07:53.548Z,18.15
2023-02-24T11:10:32.565Z,18.95
2023-02-24T11:13:19.898Z,21.77
2023-02-24T11:16:29.098Z,21.75
2023-02-24T11:18:57.040Z,22.98
2023-02-24T11:21:26.879Z,21.92
2023-02-24T11:23:59.606Z,22.52
2023-02-24T11:26:33.652Z,24.27
2023-02-24T11:29:26.749Z,19.17
2023-02-24T11:32:14.885Z,20.60
2023-02-24T11:35:04.304Z,20.35
2023-02-24T11:37:38.995Z,21.10
2023-02-24T11:40:17.316Z,20.85
2023-02-24T11:43:28.130Z,19.50
2023-02-24T11:46:00.608Z,19.25
2023-02-24T11:48:32.122Z,22.57
2023-02-24T11:51:10.757Z,19.55
2023-02-24T11:53:51.452Z,17.42
2023-02-24T11:56:44.491Z,20.15
2023-02-24T11:59:27.329Z,19.20
2023-02-24T12:02:03.711Z,21.33
2023-02-24T12:04:46.399Z,20.90
2023-02-24T12:07:28.566Z,19.67
2023-02-24T12:10:17.167Z,21.50
2023-02-24T12:12:47.901Z,23.98
2023-02-24T12:15:30.869Z,22.23
2023-02-24T12:18:13.706Z,17.75
2023-02-24T12:20:50.593Z,21.58
2023-02-24T12:23:34.379Z,18.85
2023-02-24T12:29:22.789Z,20.65
2023-02-24T12:32:11.125Z,19.65
2023-02-24T12:35:06.981Z,19.52
2023-02-24T12:37:52.480Z,20.15
2023-02-24T12:40:47.788Z,19.98
2023-02-24T12:43:45.140Z,19.30
2023-02-24T12:46:59.830Z,19.38
2023-02-24T12:49:42.632Z,21.00
2023-02-24T12:52:27.023Z,22.30
2023-02-24T12:55:05.885Z,21.13
2023-02-24T12:57:55.964Z,22.95
2023-02-24T13:00:41.815Z,21.95
2023-02-24T13:03:20.060Z,20.55
2023-02-24T13:06:14.946Z,20.20
2023-02-24T13:08:56.367Z,20.58
2023-02-24T13:11:41.925Z,20.92
2023-02-24T13:14:21.140Z,21.20
2023-02-24T13:16:48.190Z,20.48
2023-02-24T13:19:26.921Z,20.65
2023-02-24T13:22:19.385Z,19.75
2023-02-24T13:24:55.268Z,20.63
2023-02-24T13:27:29.028Z,17.75
2023-02-24T13:30:03.056Z,19.27
2023-02-24T13:32:35.748Z,20.92
2023-02-24T13:35:25.226Z,19.85
2023-02-24T13:37:53.734Z,21.23
2023-02-24T13:40:23.338Z,18.20
2023-02-24T13:42:56.294Z,18.83
2023-02-24T13:45:25.820Z,19.35
2023-02-24T13:48:09.580Z,19.92
2023-02-24T13:53:33.742Z,20.33
2023-02-24T13:56:18.763Z,19.77
2023-02-24T13:58:55.329Z,18.20
2023-02-24T14:01:23.516Z,16.35
2023-02-24T14:04:14.896Z,17.70
2023-02-24T14:06:47.813Z,17.10
2023-02-24T14:09:18.455Z,17.67
2023-02-24T14:11:45.284Z,13.70
2023-02-24T14:14:18.302Z,15.18
2023-02-24T14:16:48.136Z,19.67
2023-02-24T14:19:17.276Z,14.15
2023-02-24T14:21:55.750Z,15.82
2023-02-24T14:24:23.551Z,14.93
2023-02-24T14:26:52.305Z,18.63
2023-02-24T14:29:22.676Z,18.05
2023-02-24T14:31:52.504Z,16.95
2023-02-24T14:34:22.711Z,17.00
2023-02-24T14:36:52.820Z,21.15
2023-02-24T14:39:25.401Z,17.60
2023-02-24T14:42:10.280Z,15.30
2023-02-24T14:44:48.312Z,18.63
2023-02-24T14:47:16.772Z,14.10
2023-02-24T14:50:02.837Z,13.88
2023-02-24T14:52:42.678Z,15.63
2023-02-24T14:55:31.926Z,17.83
2023-02-24T14:58:24.106Z,17.42
2023-02-24T15:00:58.749Z,17.20
2023-02-24T15:03:29.343Z,17.80
2023-02-24T15:06:04.733Z,19.90
2023-02-24T15:08:41.387Z,17.73
2023-02-24T15:11:17.546Z,19.33
2023-02-24T15:14:06.878Z,20.23
2023-02-24T15:16:37.343Z,22.05
2023-02-24T15:19:04.886Z,14.93
2023-02-24T15:21:40.538Z,18.85
2023-02-24T15:24:21.183Z,16.60
2023-02-24T15:26:56.943Z,18.88
2023-02-24T15:29:27.620Z,18.27
2023-02-24T15:31:56.593Z,16.83
2023-02-24T15:34:25.278Z,18.77
2023-02-24T15:36:55.681Z,20.17
2023-02-24T15:39:26.651Z,21.23
2023-02-24T15:42:21.318Z,20.30
2023-02-24T15:44:54.385Z,19.70
2023-02-24T15:47:25.678Z,19.08
2023-02-24T15:49:52.468Z,20.67
2023-02-24T15:52:24.047Z,24.70
2023-02-24T15:54:50.973Z,23.52
2023-02-24T15:57:18.556Z,26.90
2023-02-24T15:59:45.453Z,22.60
2023-02-24T16:02:20.792Z,26.35
2023-02-24T16:04:48.705Z,20.73
2023-02-24T16:07:25.598Z,24.92
2023-02-24T16:09:54.307Z,19.73
2023-02-24T16:12:29.306Z,24.02
2023-02-24T16:15:02.401Z,20.65
2023-02-24T16:20:02.236Z,20.52
2023-02-24T16:22:29.538Z,21.13
2023-02-24T16:24:56.345Z,22.30
2023-02-24T16:27:23.798Z,20.30
2023-02-24T16:29:51.120Z,21.65
2023-02-24T16:32:18.074Z,20.60
2023-02-24T16:34:44.934Z,21.88
2023-02-24T16:37:27.591Z,20.05
2023-02-24T16:39:55.172Z,18.98
2023-02-24T16:42:22.260Z,21.83
2023-02-24T16:44:49.730Z,21.15
2023-02-24T16:47:20.521Z,23.38
2023-02-24T16:49:47.351Z,22.45
2023-02-24T16:52:18.907Z,21.13
2023-02-24T16:54:46.349Z,20.35
2023-02-24T16:57:13.093Z,23.05
2023-02-24T16:59:39.819Z,20.38
2023-02-24T17:02:06.836Z,23.13
2023-02-24T17:04:33.601Z,17.08
2023-02-24T17:07:01.403Z,18.33
2023-02-24T17:09:29.902Z,19.17
2023-02-24T17:11:57.134Z,19.02
2023-02-24T17:14:24.561Z,19.38
2023-02-24T17:16:51.859Z,20.20
2023-02-24T17:19:18.604Z,14.48
2023-02-24T17:21:45.858Z,15.95
2023-02-24T17:24:18.293Z,17.10
2023-02-24T17:26:45.464Z,18.15
2023-02-24T17:29:13.753Z,17.10
2023-02-24T17:31:42.265Z,17.73
2023-02-24T17:34:10.068Z,18.95
2023-02-24T17:36:36.803Z,12.80
2023-02-24T17:39:03.634Z,15.75
2023-02-24T17:41:30.480Z,13.77
2023-02-24T17:43:57.232Z,17.33
2023-02-24T17:46:24.339Z,20.30
2023-02-24T17:48:51.311Z,18.73
2023-02-24T17:51:19.541Z,17.48
2023-02-24T17:53:46.445Z,16.88
2023-02-24T17:56:13.239Z,16.63
2023-02-24T17:58:40.222Z,17.85
2023-02-24T18:01:07.859Z,17.20
2023-02-24T18:03:36.181Z,17.02
2023-02-24T18:06:05.877Z,16.88
2023-02-24T18:08:34.914Z,15.82
2023-02-24T18:11:02.088Z,19.58
2023-02-24T18:13:30.512Z,16.92
2023-02-24T18:15:57.351Z,16.60
2023-02-24T18:18:25.340Z,20.60
2023-02-24T18:20:52.325Z,19.17
2023-02-24T18:23:19.782Z,18.77
2023-02-24T18:25:46.518Z,21.63
2023-02-24T18:28:13.264Z,22.50
2023-02-24T18:30:40.116Z,19.02
2023-02-24T18:33:07.180Z,19.73
2023-02-24T18:35:34.061Z,18.35
2023-02-24T18:38:00.851Z,19.77
2023-02-24T18:40:28.608Z,18.30
2023-02-24T18:42:55.913Z,19.50
2023-02-24T18:45:23.833Z,19.70
2023-02-24T18:47:52.310Z,18.08
2023-02-24T18:50:20.551Z,18.08
2023-02-24T18:52:47.378Z,19.15
2023-02-24T18:55:14.142Z,21.63
2023-02-24T18:57:41.068Z,18.77
2023-02-24T19:00:08.598Z,19.38
2023-02-24T19:02:35.433Z,19.27
2023-02-24T19:05:02.727Z,21.20
2023-02-24T19:07:29.902Z,18.58
2023-02-24T19:09:56.745Z,18.08
2023-02-24T19:12:24.078Z,20.83
2023-02-24T19:14:52.434Z,21.55
2023-02-24T19:17:20.266Z,18.15
2023-02-24T19:19:47.039Z,18.02
2023-02-24T19:22:13.836Z,18.50
2023-02-24T19:24:40.627Z,18.95
2023-02-24T19:27:08.639Z,20.42
2023-02-24T19:29:35.444Z,21.05
2023-02-24T19:32:02.429Z,21.27
2023-02-24T19:34:29.332Z,22.50
2023-02-24T19:36:56.070Z,20.50
2023-02-24T19:39:22.903Z,24.27
2023-02-24T19:41:50.066Z,25.40
2023-02-24T19:44:16.996Z,19.55
2023-02-24T19:46:43.796Z,19.35
2023-02-24T19:49:10.665Z,21.50
2023-02-24T19:51:37.409Z,20.98
2023-02-24T19:54:06.117Z,20.70
2023-02-24T19:56:36.787Z,19.00
2023-02-24T19:59:06.400Z,20.30
2023-02-24T20:01:33.543Z,17.20
2023-02-24T20:04:02.029Z,24.05
2023-02-24T20:06:35.613Z,19.23
2023-02-24T20:09:06.299Z,19.50
2023-02-24T20:11:38.925Z,17.58
2023-02-24T20:14:07.466Z,16.40
2023-02-24T20:16:36.775Z,17.17
2023-02-24T20:19:05.923Z,18.02
2023-02-24T20:21:33.538Z,17.55
2023-02-24T20:24:01.661Z,16.90
2023-02-24T20:26:28.718Z,20.70
2023-02-24T20:28:56.463Z,17.60
2023-02-24T20:31:24.063Z,19.40
2023-02-24T20:33:51.165Z,16.48
2023-02-24T20:36:23.889Z,15.82
2023-02-24T20:38:51.574Z,16.23
2023-02-24T20:41:20.035Z,16.35
2023-02-24T20:43:47.687Z,17.52
2023-02-24T20:46:24.736Z,18.60
2023-02-24T20:48:54.684Z,15.95
2023-02-24T20:51:23.043Z,18.88
2023-02-24T20:53:57.423Z,16.55
2023-02-24T20:56:29.247Z,20.48
2023-02-24T20:59:02.066Z,19.70
2023-02-24T21:01:30.508Z,17.35
2023-02-24T21:03:57.847Z,17.15
2023-02-24T21:06:25.776Z,20.77
2023-02-24T21:08:55.483Z,18.83
2023-02-24T21:11:22.861Z,18.10
2023-02-24T21:13:51.064Z,13.75
2023-02-24T21:16:19.394Z,13.00
2023-02-24T21:18:47.635Z,8.57
2023-02-24T21:21:15.318Z,6.53
2023-02-24T21:23:43.452Z,4.88
2023-02-24T21:26:10.863Z,5.20
2023-02-24T21:28:38.524Z,6.25
2023-02-24T21:31:10.134Z,5.15
2023-02-24T21:33:37.701Z,5.60
2023-02-24T21:36:07.420Z,4.50
2023-02-24T21:38:37.414Z,2.53
2023-02-24T21:41:07.010Z,3.15
2023-02-24T21:43:33.973Z,3.85
2023-02-24T21:46:02.622Z,4.78
2023-02-24T21:48:29.485Z,6.05
2023-02-24T21:51:04.957Z,5.38
2023-02-24T21:53:35.738Z,5.40
2023-02-24T21:56:10.750Z,6.05
2023-02-24T21:58:39.079Z,7.10
2023-02-24T22:01:14.270Z,7.40
2023-02-24T22:03:41.341Z,6.22
2023-02-24T22:06:10.501Z,7.43
2023-02-24T22:08:37.825Z,6.50
2023-02-24T22:11:04.661Z,6.30
2023-02-24T22:13:31.448Z,5.78
2023-02-24T22:16:01.972Z,5.80
2023-02-24T22:18:29.202Z,5.60
2023-02-24T22:20:56.020Z,4.93
2023-02-24T22:23:22.874Z,5.72
2023-02-24T22:25:49.602Z,4.18
2023-02-24T22:28:16.436Z,5.28
2023-02-24T22:30:43.242Z,4.13
2023-02-24T22:33:10.024Z,3.70
2023-02-24T22:35:36.774Z,4.20
2023-02-24T22:38:03.526Z,3.03
2023-02-24T22:40:30.311Z,5.22
2023-02-24T22:42:57.050Z,3.20
2023-02-24T22:45:23.862Z,2.65
2023-02-24T22:47:50.640Z,1.85
2023-02-24T22:50:17.556Z,2.72
2023-02-24T22:52:44.282Z,1.77
2023-02-24T22:55:11.321Z,1.50
2023-02-24T22:57:38.262Z,1.95
2023-02-24T23:00:09.644Z,1.73
2023-02-24T23:02:37.108Z,2.20
2023-02-24T23:05:04.264Z,1.63
2023-02-24T23:07:31.074Z,1.42
2023-02-24T23:09:59.227Z,1.85
2023-02-24T23:12:26.367Z,2.65
2023-02-24T23:14:53.208Z,1.42
2023-02-24T23:17:21.402Z,1.55
2023-02-24T23:19:48.137Z,1.63
2023-02-24T23:22:15.231Z,1.85
2023-02-24T23:24:42.028Z,2.40
2023-02-24T23:27:09.805Z,1.45
2023-02-24T23:29:36.827Z,2.08
2023-02-24T23:32:03.796Z,2.28
2023-02-24T23:34:30.574Z,2.22
2023-02-24T23:36:57.340Z,3.08
2023-02-24T23:39:24.482Z,2.40
2023-02-24T23:41:56.684Z,2.25
2023-02-24T23:44:24.135Z,2.60
2023-02-24T23:46:50.948Z,3.03
2023-02-24T23:49:17.656Z,2.30
2023-02-24T23:51:48.999Z,3.33
2023-02-24T23:54:18.073Z,2.20
2023-02-24T23:56:45.173Z,3.40
2023-02-24T23:59:12.062Z,3.90
